sensor_id;sensor_type;location;lat;lon;timestamp;P1;durP1;ratioP1;P2;durP2;ratioP2
44248;SDS011;29923;48.718;9.272;2023-10-19T00:02:04;51.78;;;32.35;;
44248;SDS011;29923;48.718;9.272;2023-10-19T00:04:30;39.30;;;27.55;;
44248;SDS011;29923;48.718;9.272;2023-10-19T00:06:57;41.70;;;23.98;;
44248;SDS011;29923;48.718;9.272;2023-10-19T00:09:23;31.50;;;22.92;;
44248;SDS011;29923;48.718;9.272;2023-10-19T00:11:48;66.97;;;35.75;;
44248;SDS011;29923;48.718;9.272;2023-10-19T00:14:16;37.28;;;24.80;;
44248;SDS011;29923;48.718;9.272;2023-10-19T00:16:43;36.55;;;24.80;;
44248;SDS011;29923;48.718;9.272;2023-10-19T00:19:15;35.53;;;26.00;;
44248;SDS011;29923;48.718;9.272;2023-10-19T00:21:44;48.15;;;27.40;;
44248;SDS011;29923;48.718;9.272;2023-10-19T00:24:16;60.17;;;30.83;;
44248;SDS011;29923;48.718;9.272;2023-10-19T00:26:43;34.63;;;25.60;;
44248;SDS011;29923;48.718;9.272;2023-10-19T00:29:09;58.80;;;32.67;;
44248;SDS011;29923;48.718;9.272;2023-10-19T00:31:53;35.47;;;23.55;;
44248;SDS011;29923;48.718;9.272;2023-10-19T00:34:21;23.05;;;17.10;;
44248;SDS011;29923;48.718;9.272;2023-10-19T00:36:46;40.67;;;27.25;;
44248;SDS011;29923;48.718;9.272;2023-10-19T00:39:13;33.40;;;21.05;;
44248;SDS011;29923;48.718;9.272;2023-10-19T00:41:40;43.90;;;27.05;;
44248;SDS011;29923;48.718;9.272;2023-10-19T00:44:07;34.45;;;23.60;;
44248;SDS011;29923;48.718;9.272;2023-10-19T00:46:36;54.63;;;32.85;;
44248;SDS011;29923;48.718;9.272;2023-10-19T00:49:07;47.25;;;28.55;;
44248;SDS011;29923;48.718;9.272;2023-10-19T00:51:42;43.05;;;25.00;;
44248;SDS011;29923;48.718;9.272;2023-10-19T00:54:32;49.50;;;30.90;;
44248;SDS011;29923;48.718;9.272;2023-10-19T00:57:11;36.33;;;23.85;;
44248;SDS011;29923;48.718;9.272;2023-10-19T00:59:38;49.90;;;31.00;;
44248;SDS011;29923;48.718;9.272;2023-10-19T01:02:14;35.33;;;23.70;;
44248;SDS011;29923;48.718;9.272;2023-10-19T01:04:43;35.85;;;24.58;;
44248;SDS011;29923;48.718;9.272;2023-10-19T01:07:11;76.95;;;38.63;;
44248;SDS011;29923;48.718;9.272;2023-10-19T01:09:40;36.30;;;24.83;;
44248;SDS011;29923;48.718;9.272;2023-10-19T01:12:09;44.75;;;28.70;;
44248;SDS011;29923;48.718;9.272;2023-10-19T01:17:36;31.98;;;20.98;;
44248;SDS011;29923;48.718;9.272;2023-10-19T01:20:08;40.80;;;31.92;;
44248;SDS011;29923;48.718;9.272;2023-10-19T01:22:50;46.05;;;29.38;;
44248;SDS011;29923;48.718;9.272;2023-10-19T01:25:46;37.53;;;22.80;;
44248;SDS011;29923;48.718;9.272;2023-10-19T01:28:25;51.80;;;29.10;;
44248;SDS011;29923;48.718;9.272;2023-10-19T01:31:07;58.33;;;32.42;;
44248;SDS011;29923;48.718;9.272;2023-10-19T01:33:40;46.40;;;27.70;;
44248;SDS011;29923;48.718;9.272;2023-10-19T01:36:07;42.47;;;27.02;;
44248;SDS011;29923;48.718;9.272;2023-10-19T01:38:36;61.03;;;33.97;;
44248;SDS011;29923;48.718;9.272;2023-10-19T01:41:02;69.53;;;37.38;;
44248;SDS011;29923;48.718;9.272;2023-10-19T01:43:44;48.72;;;29.80;;
44248;SDS011;29923;48.718;9.272;2023-10-19T01:46:12;69.18;;;34.90;;
44248;SDS011;29923;48.718;9.272;2023-10-19T01:48:42;54.65;;;29.90;;
44248;SDS011;29923;48.718;9.272;2023-10-19T01:51:09;44.92;;;27.48;;
44248;SDS011;29923;48.718;9.272;2023-10-19T01:53:36;71.05;;;36.60;;
44248;SDS011;29923;48.718;9.272;2023-10-19T01:56:04;60.15;;;33.38;;
44248;SDS011;29923;48.718;9.272;2023-10-19T01:58:37;50.38;;;27.17;;
44248;SDS011;29923;48.718;9.272;2023-10-19T02:01:04;45.33;;;28.02;;
44248;SDS011;29923;48.718;9.272;2023-10-19T02:03:38;40.65;;;23.40;;
44248;SDS011;29923;48.718;9.272;2023-10-19T02:06:07;50.40;;;27.75;;
44248;SDS011;29923;48.718;9.272;2023-10-19T02:08:50;46.90;;;27.75;;
44248;SDS011;29923;48.718;9.272;2023-10-19T02:11:33;42.03;;;25.80;;
44248;SDS011;29923;48.718;9.272;2023-10-19T02:13:59;37.25;;;23.95;;
44248;SDS011;29923;48.718;9.272;2023-10-19T02:16:37;98.15;;;42.85;;
44248;SDS011;29923;48.718;9.272;2023-10-19T02:19:03;39.97;;;24.63;;
44248;SDS011;29923;48.718;9.272;2023-10-19T02:21:28;64.03;;;37.63;;
44248;SDS011;29923;48.718;9.272;2023-10-19T02:23:55;42.70;;;26.55;;
44248;SDS011;29923;48.718;9.272;2023-10-19T02:26:22;37.10;;;24.00;;
44248;SDS011;29923;48.718;9.272;2023-10-19T02:28:50;43.38;;;27.00;;
44248;SDS011;29923;48.718;9.272;2023-10-19T02:31:16;73.00;;;37.70;;
44248;SDS011;29923;48.718;9.272;2023-10-19T02:33:52;45.58;;;26.08;;
44248;SDS011;29923;48.718;9.272;2023-10-19T02:36:24;44.20;;;26.15;;
44248;SDS011;29923;48.718;9.272;2023-10-19T02:38:53;55.90;;;30.92;;
44248;SDS011;29923;48.718;9.272;2023-10-19T02:41:19;40.25;;;25.13;;
44248;SDS011;29923;48.718;9.272;2023-10-19T02:43:45;35.17;;;23.55;;
44248;SDS011;29923;48.718;9.272;2023-10-19T02:46:15;65.65;;;34.15;;
44248;SDS011;29923;48.718;9.272;2023-10-19T02:48:42;62.00;;;32.20;;
44248;SDS011;29923;48.718;9.272;2023-10-19T02:51:12;30.67;;;20.23;;
44248;SDS011;29923;48.718;9.272;2023-10-19T02:53:38;28.60;;;21.58;;
44248;SDS011;29923;48.718;9.272;2023-10-19T02:56:14;42.10;;;26.70;;
44248;SDS011;29923;48.718;9.272;2023-10-19T02:58:44;29.35;;;20.33;;
44248;SDS011;29923;48.718;9.272;2023-10-19T03:01:18;43.17;;;26.50;;
44248;SDS011;29923;48.718;9.272;2023-10-19T03:03:48;30.52;;;21.55;;
44248;SDS011;29923;48.718;9.272;2023-10-19T03:06:19;29.15;;;20.25;;
44248;SDS011;29923;48.718;9.272;2023-10-19T03:08:45;30.58;;;19.60;;
44248;SDS011;29923;48.718;9.272;2023-10-19T03:11:12;33.75;;;23.58;;
44248;SDS011;29923;48.718;9.272;2023-10-19T03:13:39;35.13;;;21.67;;
44248;SDS011;29923;48.718;9.272;2023-10-19T03:16:06;26.88;;;19.17;;
44248;SDS011;29923;48.718;9.272;2023-10-19T03:18:32;34.45;;;23.05;;
44248;SDS011;29923;48.718;9.272;2023-10-19T03:21:00;28.67;;;19.02;;
44248;SDS011;29923;48.718;9.272;2023-10-19T03:23:26;28.75;;;18.95;;
44248;SDS011;29923;48.718;9.272;2023-10-19T03:25:54;29.63;;;21.63;;
44248;SDS011;29923;48.718;9.272;2023-10-19T03:28:39;24.55;;;18.02;;
44248;SDS011;29923;48.718;9.272;2023-10-19T03:31:05;35.13;;;22.15;;
44248;SDS011;29923;48.718;9.272;2023-10-19T03:33:32;34.13;;;21.90;;
44248;SDS011;29923;48.718;9.272;2023-10-19T03:35:58;33.25;;;20.58;;
44248;SDS011;29923;48.718;9.272;2023-10-19T03:38:23;40.50;;;23.35;;
44248;SDS011;29923;48.718;9.272;2023-10-19T03:40:49;35.10;;;23.95;;
44248;SDS011;29923;48.718;9.272;2023-10-19T03:43:17;33.50;;;21.60;;
44248;SDS011;29923;48.718;9.272;2023-10-19T03:45:47;40.35;;;26.00;;
44248;SDS011;29923;48.718;9.272;2023-10-19T03:48:18;25.08;;;18.80;;
44248;SDS011;29923;48.718;9.272;2023-10-19T03:50:49;26.45;;;17.67;;
44248;SDS011;29923;48.718;9.272;2023-10-19T03:53:18;29.60;;;20.35;;
44248;SDS011;29923;48.718;9.272;2023-10-19T03:55:43;28.35;;;18.23;;
44248;SDS011;29923;48.718;9.272;2023-10-19T03:58:09;36.42;;;23.17;;
44248;SDS011;29923;48.718;9.272;2023-10-19T04:00:37;33.40;;;21.15;;
44248;SDS011;29923;48.718;9.272;2023-10-19T04:03:02;30.08;;;19.92;;
44248;SDS011;29923;48.718;9.272;2023-10-19T04:05:27;39.95;;;24.40;;
44248;SDS011;29923;48.718;9.272;2023-10-19T04:07:53;34.38;;;21.77;;
44248;SDS011;29923;48.718;9.272;2023-10-19T04:10:22;24.52;;;18.02;;
44248;SDS011;29923;48.718;9.272;2023-10-19T04:13:00;37.35;;;24.95;;
44248;SDS011;29923;48.718;9.272;2023-10-19T04:15:26;41.42;;;24.63;;
44248;SDS011;29923;48.718;9.272;2023-10-19T04:17:54;38.35;;;24.27;;
44248;SDS011;29923;48.718;9.272;2023-10-19T04:20:20;39.13;;;24.83;;
44248;SDS011;29923;48.718;9.272;2023-10-19T04:22:46;30.90;;;20.85;;
44248;SDS011;29923;48.718;9.272;2023-10-19T04:25:15;26.02;;;18.95;;
44248;SDS011;29923;48.718;9.272;2023-10-19T04:27:43;32.35;;;22.85;;
44248;SDS011;29923;48.718;9.272;2023-10-19T04:30:09;30.40;;;21.80;;
44248;SDS011;29923;48.718;9.272;2023-10-19T04:32:41;25.52;;;17.80;;
44248;SDS011;29923;48.718;9.272;2023-10-19T04:35:09;28.45;;;18.98;;
44248;SDS011;29923;48.718;9.272;2023-10-19T04:37:35;23.98;;;17.73;;
44248;SDS011;29923;48.718;9.272;2023-10-19T04:40:00;42.97;;;24.92;;
44248;SDS011;29923;48.718;9.272;2023-10-19T04:42:26;31.38;;;18.52;;
44248;SDS011;29923;48.718;9.272;2023-10-19T04:44:52;25.25;;;17.65;;
44248;SDS011;29923;48.718;9.272;2023-10-19T04:47:19;28.17;;;20.65;;
44248;SDS011;29923;48.718;9.272;2023-10-19T04:49:44;30.88;;;20.35;;
44248;SDS011;29923;48.718;9.272;2023-10-19T04:52:10;34.58;;;23.83;;
44248;SDS011;29923;48.718;9.272;2023-10-19T04:54:35;36.65;;;24.02;;
44248;SDS011;29923;48.718;9.272;2023-10-19T04:57:02;37.08;;;23.13;;
44248;SDS011;29923;48.718;9.272;2023-10-19T04:59:28;87.47;;;38.72;;
44248;SDS011;29923;48.718;9.272;2023-10-19T05:01:56;52.35;;;31.00;;
44248;SDS011;29923;48.718;9.272;2023-10-19T05:04:21;48.08;;;32.70;;
44248;SDS011;29923;48.718;9.272;2023-10-19T05:06:47;108.75;;;73.28;;
44248;SDS011;29923;48.718;9.272;2023-10-19T05:09:12;57.65;;;31.63;;
44248;SDS011;29923;48.718;9.272;2023-10-19T05:11:38;22.48;;;17.27;;
44248;SDS011;29923;48.718;9.272;2023-10-19T05:14:04;55.13;;;30.48;;
44248;SDS011;29923;48.718;9.272;2023-10-19T05:16:30;48.88;;;28.55;;
44248;SDS011;29923;48.718;9.272;2023-10-19T05:18:56;69.45;;;33.42;;
44248;SDS011;29923;48.718;9.272;2023-10-19T05:21:21;70.93;;;35.15;;
44248;SDS011;29923;48.718;9.272;2023-10-19T05:23:46;107.55;;;45.72;;
44248;SDS011;29923;48.718;9.272;2023-10-19T05:26:12;84.38;;;40.95;;
44248;SDS011;29923;48.718;9.272;2023-10-19T05:28:39;67.28;;;34.60;;
44248;SDS011;29923;48.718;9.272;2023-10-19T05:31:05;38.60;;;25.55;;
44248;SDS011;29923;48.718;9.272;2023-10-19T05:33:30;50.45;;;29.88;;
44248;SDS011;29923;48.718;9.272;2023-10-19T05:35:55;43.95;;;26.48;;
44248;SDS011;29923;48.718;9.272;2023-10-19T05:38:21;54.42;;;30.48;;
44248;SDS011;29923;48.718;9.272;2023-10-19T05:40:47;56.20;;;31.52;;
44248;SDS011;29923;48.718;9.272;2023-10-19T05:43:14;40.08;;;25.17;;
44248;SDS011;29923;48.718;9.272;2023-10-19T05:45:40;33.42;;;21.13;;
44248;SDS011;29923;48.718;9.272;2023-10-19T05:48:06;54.97;;;31.00;;
44248;SDS011;29923;48.718;9.272;2023-10-19T05:50:35;48.85;;;29.63;;
44248;SDS011;29923;48.718;9.272;2023-10-19T05:53:01;49.05;;;29.75;;
44248;SDS011;29923;48.718;9.272;2023-10-19T05:55:28;44.13;;;26.70;;
44248;SDS011;29923;48.718;9.272;2023-10-19T05:57:54;41.25;;;25.15;;
44248;SDS011;29923;48.718;9.272;2023-10-19T06:00:19;62.03;;;36.25;;
44248;SDS011;29923;48.718;9.272;2023-10-19T06:02:46;73.53;;;38.25;;
44248;SDS011;29923;48.718;9.272;2023-10-19T06:05:14;32.65;;;21.73;;
44248;SDS011;29923;48.718;9.272;2023-10-19T06:07:40;61.15;;;32.55;;
44248;SDS011;29923;48.718;9.272;2023-10-19T06:10:07;34.90;;;24.33;;
44248;SDS011;29923;48.718;9.272;2023-10-19T06:12:32;39.25;;;25.33;;
44248;SDS011;29923;48.718;9.272;2023-10-19T06:14:58;33.97;;;23.88;;
44248;SDS011;29923;48.718;9.272;2023-10-19T06:17:25;29.83;;;22.02;;
44248;SDS011;29923;48.718;9.272;2023-10-19T06:19:51;26.77;;;19.35;;
44248;SDS011;29923;48.718;9.272;2023-10-19T06:22:17;37.00;;;22.52;;
44248;SDS011;29923;48.718;9.272;2023-10-19T06:24:42;30.85;;;21.08;;
44248;SDS011;29923;48.718;9.272;2023-10-19T06:27:09;38.97;;;23.27;;
44248;SDS011;29923;48.718;9.272;2023-10-19T06:29:34;34.80;;;23.88;;
44248;SDS011;29923;48.718;9.272;2023-10-19T06:32:00;33.10;;;20.70;;
44248;SDS011;29923;48.718;9.272;2023-10-19T06:34:25;28.05;;;18.17;;
44248;SDS011;29923;48.718;9.272;2023-10-19T06:36:52;39.20;;;23.50;;
44248;SDS011;29923;48.718;9.272;2023-10-19T06:39:19;13.25;;;9.82;;
44248;SDS011;29923;48.718;9.272;2023-10-19T06:41:46;12.77;;;10.60;;
44248;SDS011;29923;48.718;9.272;2023-10-19T06:44:12;29.60;;;19.40;;
44248;SDS011;29923;48.718;9.272;2023-10-19T06:46:38;26.77;;;17.52;;
44248;SDS011;29923;48.718;9.272;2023-10-19T06:49:04;32.25;;;20.38;;
44248;SDS011;29923;48.718;9.272;2023-10-19T06:51:30;26.98;;;16.63;;
44248;SDS011;29923;48.718;9.272;2023-10-19T06:53:55;28.45;;;19.90;;
44248;SDS011;29923;48.718;9.272;2023-10-19T06:56:21;24.02;;;16.98;;
44248;SDS011;29923;48.718;9.272;2023-10-19T06:58:46;29.17;;;18.70;;
44248;SDS011;29923;48.718;9.272;2023-10-19T07:01:13;33.47;;;21.67;;
44248;SDS011;29923;48.718;9.272;2023-10-19T07:03:41;24.08;;;17.17;;
44248;SDS011;29923;48.718;9.272;2023-10-19T07:06:06;39.97;;;19.98;;
44248;SDS011;29923;48.718;9.272;2023-10-19T07:08:33;39.13;;;24.15;;
44248;SDS011;29923;48.718;9.272;2023-10-19T07:10:58;28.30;;;19.83;;
44248;SDS011;29923;48.718;9.272;2023-10-19T07:13:25;30.65;;;21.48;;
44248;SDS011;29923;48.718;9.272;2023-10-19T07:15:50;32.80;;;19.42;;
44248;SDS011;29923;48.718;9.272;2023-10-19T07:18:16;40.38;;;24.67;;
44248;SDS011;29923;48.718;9.272;2023-10-19T07:20:42;33.70;;;21.77;;
44248;SDS011;29923;48.718;9.272;2023-10-19T07:23:07;29.50;;;19.60;;
44248;SDS011;29923;48.718;9.272;2023-10-19T07:25:51;38.38;;;23.85;;
44248;SDS011;29923;48.718;9.272;2023-10-19T07:28:21;27.48;;;17.92;;
44248;SDS011;29923;48.718;9.272;2023-10-19T07:30:47;29.42;;;16.75;;
44248;SDS011;29923;48.718;9.272;2023-10-19T07:33:13;35.28;;;22.35;;
44248;SDS011;29923;48.718;9.272;2023-10-19T07:35:43;38.40;;;22.23;;
44248;SDS011;29923;48.718;9.272;2023-10-19T07:38:11;28.83;;;19.23;;
44248;SDS011;29923;48.718;9.272;2023-10-19T07:40:38;32.63;;;17.98;;
44248;SDS011;29923;48.718;9.272;2023-10-19T07:43:04;30.83;;;18.02;;
44248;SDS011;29923;48.718;9.272;2023-10-19T07:45:29;23.73;;;15.95;;
44248;SDS011;29923;48.718;9.272;2023-10-19T07:47:57;25.80;;;15.88;;
44248;SDS011;29923;48.718;9.272;2023-10-19T07:50:22;23.13;;;14.10;;
44248;SDS011;29923;48.718;9.272;2023-10-19T07:52:51;20.73;;;13.40;;
44248;SDS011;29923;48.718;9.272;2023-10-19T07:55:21;19.80;;;14.30;;
44248;SDS011;29923;48.718;9.272;2023-10-19T07:57:50;22.58;;;15.13;;
44248;SDS011;29923;48.718;9.272;2023-10-19T08:00:16;22.67;;;14.35;;
44248;SDS011;29923;48.718;9.272;2023-10-19T08:02:45;30.30;;;17.08;;
44248;SDS011;29923;48.718;9.272;2023-10-19T08:05:11;19.02;;;12.98;;
44248;SDS011;29923;48.718;9.272;2023-10-19T08:07:39;22.67;;;13.60;;
44248;SDS011;29923;48.718;9.272;2023-10-19T08:10:08;23.00;;;14.02;;
44248;SDS011;29923;48.718;9.272;2023-10-19T08:12:35;18.23;;;13.40;;
44248;SDS011;29923;48.718;9.272;2023-10-19T08:15:01;22.73;;;14.63;;
44248;SDS011;29923;48.718;9.272;2023-10-19T08:17:27;20.92;;;13.57;;
44248;SDS011;29923;48.718;9.272;2023-10-19T08:19:52;21.30;;;13.25;;
44248;SDS011;29923;48.718;9.272;2023-10-19T08:22:18;18.58;;;13.30;;
44248;SDS011;29923;48.718;9.272;2023-10-19T08:24:44;18.67;;;11.55;;
44248;SDS011;29923;48.718;9.272;2023-10-19T08:27:11;19.40;;;13.55;;
44248;SDS011;29923;48.718;9.272;2023-10-19T08:29:37;17.60;;;11.20;;
44248;SDS011;29923;48.718;9.272;2023-10-19T08:32:03;18.98;;;12.60;;
44248;SDS011;29923;48.718;9.272;2023-10-19T08:34:28;18.52;;;11.55;;
44248;SDS011;29923;48.718;9.272;2023-10-19T08:36:54;15.32;;;11.00;;
44248;SDS011;29923;48.718;9.272;2023-10-19T08:39:20;17.92;;;10.38;;
44248;SDS011;29923;48.718;9.272;2023-10-19T08:41:46;16.75;;;10.10;;
44248;SDS011;29923;48.718;9.272;2023-10-19T08:44:14;16.35;;;10.15;;
44248;SDS011;29923;48.718;9.272;2023-10-19T08:46:43;14.05;;;9.43;;
44248;SDS011;29923;48.718;9.272;2023-10-19T08:49:10;18.83;;;9.43;;
44248;SDS011;29923;48.718;9.272;2023-10-19T08:51:37;14.82;;;9.52;;
44248;SDS011;29923;48.718;9.272;2023-10-19T08:54:04;13.82;;;8.32;;
44248;SDS011;29923;48.718;9.272;2023-10-19T08:56:30;12.27;;;8.30;;
44248;SDS011;29923;48.718;9.272;2023-10-19T08:58:56;15.00;;;8.73;;
44248;SDS011;29923;48.718;9.272;2023-10-19T09:01:21;13.48;;;9.32;;
44248;SDS011;29923;48.718;9.272;2023-10-19T09:03:49;14.02;;;9.38;;
44248;SDS011;29923;48.718;9.272;2023-10-19T09:06:15;18.58;;;11.82;;
44248;SDS011;29923;48.718;9.272;2023-10-19T09:08:40;13.63;;;9.35;;
44248;SDS011;29923;48.718;9.272;2023-10-19T09:11:06;16.08;;;9.80;;
44248;SDS011;29923;48.718;9.272;2023-10-19T09:13:49;16.95;;;9.73;;
44248;SDS011;29923;48.718;9.272;2023-10-19T09:16:18;14.95;;;9.88;;
44248;SDS011;29923;48.718;9.272;2023-10-19T09:18:46;17.83;;;10.75;;
44248;SDS011;29923;48.718;9.272;2023-10-19T09:21:14;15.88;;;10.10;;
44248;SDS011;29923;48.718;9.272;2023-10-19T09:23:54;16.13;;;10.90;;
44248;SDS011;29923;48.718;9.272;2023-10-19T09:26:21;14.18;;;10.50;;
44248;SDS011;29923;48.718;9.272;2023-10-19T09:28:47;12.63;;;10.45;;
44248;SDS011;29923;48.718;9.272;2023-10-19T09:31:13;14.15;;;10.05;;
44248;SDS011;29923;48.718;9.272;2023-10-19T09:33:41;15.48;;;9.93;;
44248;SDS011;29923;48.718;9.272;2023-10-19T09:36:10;13.43;;;8.70;;
44248;SDS011;29923;48.718;9.272;2023-10-19T09:38:43;10.60;;;8.48;;
44248;SDS011;29923;48.718;9.272;2023-10-19T09:41:13;11.55;;;8.82;;
44248;SDS011;29923;48.718;9.272;2023-10-19T09:43:42;17.23;;;8.73;;
44248;SDS011;29923;48.718;9.272;2023-10-19T09:46:10;12.02;;;9.02;;
44248;SDS011;29923;48.718;9.272;2023-10-19T09:48:41;12.18;;;9.10;;
44248;SDS011;29923;48.718;9.272;2023-10-19T09:51:08;15.52;;;10.23;;
44248;SDS011;29923;48.718;9.272;2023-10-19T09:53:34;16.95;;;9.52;;
44248;SDS011;29923;48.718;9.272;2023-10-19T09:56:00;13.98;;;10.05;;
44248;SDS011;29923;48.718;9.272;2023-10-19T09:58:36;14.95;;;9.38;;
44248;SDS011;29923;48.718;9.272;2023-10-19T10:01:05;23.55;;;10.15;;
44248;SDS011;29923;48.718;9.272;2023-10-19T10:06:27;14.60;;;10.07;;
44248;SDS011;29923;48.718;9.272;2023-10-19T10:08:53;13.73;;;10.13;;
44248;SDS011;29923;48.718;9.272;2023-10-19T10:11:20;12.23;;;9.02;;
44248;SDS011;29923;48.718;9.272;2023-10-19T10:13:48;13.65;;;8.93;;
44248;SDS011;29923;48.718;9.272;2023-10-19T10:16:16;12.38;;;7.80;;
44248;SDS011;29923;48.718;9.272;2023-10-19T10:18:42;16.05;;;8.10;;
44248;SDS011;29923;48.718;9.272;2023-10-19T10:21:12;15.25;;;8.60;;
44248;SDS011;29923;48.718;9.272;2023-10-19T10:23:51;15.93;;;8.80;;
44248;SDS011;29923;48.718;9.272;2023-10-19T10:31:46;21.13;;;9.40;;
44248;SDS011;29923;48.718;9.272;2023-10-19T10:37:00;14.75;;;9.18;;
44248;SDS011;29923;48.718;9.272;2023-10-19T10:39:27;17.23;;;9.30;;
44248;SDS011;29923;48.718;9.272;2023-10-19T10:41:55;15.63;;;10.23;;
44248;SDS011;29923;48.718;9.272;2023-10-19T10:44:37;16.00;;;9.77;;
44248;SDS011;29923;48.718;9.272;2023-10-19T10:47:04;14.13;;;9.60;;
44248;SDS011;29923;48.718;9.272;2023-10-19T10:49:35;13.57;;;9.20;;
44248;SDS011;29923;48.718;9.272;2023-10-19T10:52:11;16.85;;;9.50;;
44248;SDS011;29923;48.718;9.272;2023-10-19T10:54:37;12.43;;;8.55;;
44248;SDS011;29923;48.718;9.272;2023-10-19T10:57:02;12.82;;;9.57;;
44248;SDS011;29923;48.718;9.272;2023-10-19T10:59:29;15.88;;;9.18;;
44248;SDS011;29923;48.718;9.272;2023-10-19T11:01:54;17.02;;;10.23;;
44248;SDS011;29923;48.718;9.272;2023-10-19T11:04:20;14.57;;;10.40;;
44248;SDS011;29923;48.718;9.272;2023-10-19T11:06:53;15.10;;;10.80;;
44248;SDS011;29923;48.718;9.272;2023-10-19T11:09:21;13.55;;;9.85;;
44248;SDS011;29923;48.718;9.272;2023-10-19T11:11:47;14.15;;;10.18;;
44248;SDS011;29923;48.718;9.272;2023-10-19T11:14:14;14.57;;;10.10;;
44248;SDS011;29923;48.718;9.272;2023-10-19T11:16:40;12.52;;;9.15;;
44248;SDS011;29923;48.718;9.272;2023-10-19T11:19:06;14.55;;;9.63;;
44248;SDS011;29923;48.718;9.272;2023-10-19T11:21:31;19.30;;;11.70;;
44248;SDS011;29923;48.718;9.272;2023-10-19T11:23:56;13.30;;;10.02;;
44248;SDS011;29923;48.718;9.272;2023-10-19T11:26:23;14.85;;;10.20;;
44248;SDS011;29923;48.718;9.272;2023-10-19T11:28:59;17.55;;;11.00;;
44248;SDS011;29923;48.718;9.272;2023-10-19T11:31:34;16.88;;;10.25;;
44248;SDS011;29923;48.718;9.272;2023-10-19T11:34:03;16.00;;;10.73;;
44248;SDS011;29923;48.718;9.272;2023-10-19T11:36:29;16.80;;;10.88;;
44248;SDS011;29923;48.718;9.272;2023-10-19T11:38:54;18.23;;;10.88;;
44248;SDS011;29923;48.718;9.272;2023-10-19T11:41:20;21.30;;;13.65;;
44248;SDS011;29923;48.718;9.272;2023-10-19T11:43:46;20.85;;;12.02;;
44248;SDS011;29923;48.718;9.272;2023-10-19T11:46:13;17.48;;;11.75;;
44248;SDS011;29923;48.718;9.272;2023-10-19T11:48:39;20.67;;;12.32;;
44248;SDS011;29923;48.718;9.272;2023-10-19T11:51:07;16.48;;;11.88;;
44248;SDS011;29923;48.718;9.272;2023-10-19T11:53:35;18.48;;;12.35;;
44248;SDS011;29923;48.718;9.272;2023-10-19T11:56:05;16.02;;;11.27;;
44248;SDS011;29923;48.718;9.272;2023-10-19T11:58:32;18.40;;;11.63;;
44248;SDS011;29923;48.718;9.272;2023-10-19T12:01:00;14.45;;;10.50;;
44248;SDS011;29923;48.718;9.272;2023-10-19T12:03:30;16.83;;;11.20;;
44248;SDS011;29923;48.718;9.272;2023-10-19T12:05:56;17.75;;;11.35;;
44248;SDS011;29923;48.718;9.272;2023-10-19T12:08:21;21.60;;;11.25;;
44248;SDS011;29923;48.718;9.272;2023-10-19T12:10:47;18.40;;;11.68;;
44248;SDS011;29923;48.718;9.272;2023-10-19T12:13:12;16.65;;;10.98;;
44248;SDS011;29923;48.718;9.272;2023-10-19T12:15:38;18.65;;;12.70;;
44248;SDS011;29923;48.718;9.272;2023-10-19T12:18:03;21.88;;;12.60;;
44248;SDS011;29923;48.718;9.272;2023-10-19T12:20:30;19.38;;;11.55;;
44248;SDS011;29923;48.718;9.272;2023-10-19T12:22:56;20.80;;;12.38;;
44248;SDS011;29923;48.718;9.272;2023-10-19T12:25:23;20.83;;;12.30;;
44248;SDS011;29923;48.718;9.272;2023-10-19T12:27:54;17.67;;;12.80;;
44248;SDS011;29923;48.718;9.272;2023-10-19T12:30:20;23.40;;;14.10;;
44248;SDS011;29923;48.718;9.272;2023-10-19T12:32:47;22.10;;;16.08;;
44248;SDS011;29923;48.718;9.272;2023-10-19T12:35:14;20.48;;;13.95;;
44248;SDS011;29923;48.718;9.272;2023-10-19T12:37:40;22.63;;;14.25;;
44248;SDS011;29923;48.718;9.272;2023-10-19T12:40:12;25.27;;;14.85;;
44248;SDS011;29923;48.718;9.272;2023-10-19T12:42:58;25.23;;;16.35;;
44248;SDS011;29923;48.718;9.272;2023-10-19T12:45:25;22.33;;;15.55;;
44248;SDS011;29923;48.718;9.272;2023-10-19T12:47:50;33.05;;;18.45;;
44248;SDS011;29923;48.718;9.272;2023-10-19T12:50:19;26.17;;;17.67;;
44248;SDS011;29923;48.718;9.272;2023-10-19T12:52:48;24.85;;;14.88;;
44248;SDS011;29923;48.718;9.272;2023-10-19T12:55:14;28.52;;;16.80;;
44248;SDS011;29923;48.718;9.272;2023-10-19T12:57:40;38.38;;;21.73;;
44248;SDS011;29923;48.718;9.272;2023-10-19T13:00:06;29.17;;;19.55;;
44248;SDS011;29923;48.718;9.272;2023-10-19T13:02:48;34.45;;;19.23;;
44248;SDS011;29923;48.718;9.272;2023-10-19T13:05:14;31.33;;;20.63;;
44248;SDS011;29923;48.718;9.272;2023-10-19T13:07:43;31.55;;;19.65;;
44248;SDS011;29923;48.718;9.272;2023-10-19T13:10:11;27.88;;;15.07;;
44248;SDS011;29923;48.718;9.272;2023-10-19T13:12:37;24.33;;;15.07;;
44248;SDS011;29923;48.718;9.272;2023-10-19T13:15:03;29.08;;;16.85;;
44248;SDS011;29923;48.718;9.272;2023-10-19T13:17:32;24.25;;;14.82;;
44248;SDS011;29923;48.718;9.272;2023-10-19T13:19:58;20.38;;;13.20;;
44248;SDS011;29923;48.718;9.272;2023-10-19T13:22:26;27.95;;;17.80;;
44248;SDS011;29923;48.718;9.272;2023-10-19T13:24:51;26.75;;;15.13;;
44248;SDS011;29923;48.718;9.272;2023-10-19T13:27:17;19.92;;;14.20;;
44248;SDS011;29923;48.718;9.272;2023-10-19T13:29:42;20.52;;;12.63;;
44248;SDS011;29923;48.718;9.272;2023-10-19T13:32:08;22.52;;;14.02;;
44248;SDS011;29923;48.718;9.272;2023-10-19T13:34:33;22.90;;;14.50;;
44248;SDS011;29923;48.718;9.272;2023-10-19T13:36:58;22.52;;;13.95;;
44248;SDS011;29923;48.718;9.272;2023-10-19T13:39:24;23.33;;;12.50;;
44248;SDS011;29923;48.718;9.272;2023-10-19T13:41:53;26.35;;;13.60;;
44248;SDS011;29923;48.718;9.272;2023-10-19T13:44:18;22.17;;;12.70;;
44248;SDS011;29923;48.718;9.272;2023-10-19T13:46:48;22.10;;;13.93;;
44248;SDS011;29923;48.718;9.272;2023-10-19T13:49:16;22.83;;;15.05;;
44248;SDS011;29923;48.718;9.272;2023-10-19T13:51:43;22.70;;;15.43;;
44248;SDS011;29923;48.718;9.272;2023-10-19T13:54:09;22.95;;;14.95;;
44248;SDS011;29923;48.718;9.272;2023-10-19T13:56:34;29.67;;;16.52;;
44248;SDS011;29923;48.718;9.272;2023-10-19T13:59:00;25.20;;;14.93;;
44248;SDS011;29923;48.718;9.272;2023-10-19T14:01:25;23.48;;;15.25;;
44248;SDS011;29923;48.718;9.272;2023-10-19T14:03:53;21.52;;;15.77;;
44248;SDS011;29923;48.718;9.272;2023-10-19T14:06:22;24.73;;;15.82;;
44248;SDS011;29923;48.718;9.272;2023-10-19T14:08:50;23.88;;;18.08;;
44248;SDS011;29923;48.718;9.272;2023-10-19T14:11:15;25.65;;;17.48;;
44248;SDS011;29923;48.718;9.272;2023-10-19T14:13:41;26.88;;;16.55;;
44248;SDS011;29923;48.718;9.272;2023-10-19T14:16:08;28.27;;;18.85;;
44248;SDS011;29923;48.718;9.272;2023-10-19T14:18:34;24.88;;;16.65;;
44248;SDS011;29923;48.718;9.272;2023-10-19T14:21:00;28.65;;;19.15;;
44248;SDS011;29923;48.718;9.272;2023-10-19T14:23:26;28.23;;;18.65;;
44248;SDS011;29923;48.718;9.272;2023-10-19T14:25:52;35.55;;;18.38;;
44248;SDS011;29923;48.718;9.272;2023-10-19T14:28:18;26.88;;;16.88;;
44248;SDS011;29923;48.718;9.272;2023-10-19T14:30:43;39.88;;;22.80;;
44248;SDS011;29923;48.718;9.272;2023-10-19T14:33:10;24.35;;;17.52;;
44248;SDS011;29923;48.718;9.272;2023-10-19T14:35:36;27.45;;;18.02;;
44248;SDS011;29923;48.718;9.272;2023-10-19T14:38:06;26.25;;;17.40;;
44248;SDS011;29923;48.718;9.272;2023-10-19T14:40:37;25.92;;;17.48;;
44248;SDS011;29923;48.718;9.272;2023-10-19T14:43:02;30.80;;;15.85;;